Weather at Songdo Topsville Apartments Heliport

Public forecast

Using degrees Celsius for public forecast. Weather courtesy of forecast.io.

Closest aviation weather report (METAR) to Songdo Topsville Apartments Heliport

Closest report is Gimhae International Airport, 7.3 nm (13.4 km) NNW. Retrieved 2020/09/22 13:00 UTC (23 minutes ago):

RKPK 221300Z 36011KT 9999 FEW040 19/12 Q1017

Closest aviation forecast (TAF) to Songdo Topsville Apartments Heliport

Closest forecast is Gimhae International Airport, 7.3 nm (13.4 km) NNW. Retrieved 2020/09/22 12:00 UTC (1 hour ago):

TAF RKPK 221100Z 2212/2318 03010KT 9999 SCT030 SCT200 TN15/2221Z TX26/2306Z BECMG 2217/2218 BKN030 BKN200